Time,TemperatureF,DewpointF,PressureIn,WindDirection,WindDirectionDegrees,WindSpeedMPH,WindSpeedGustMPH,Humidity,HourlyPrecipIn,Conditions,Clouds,dailyrainin,SoftwareType,DateUTC
2013-05-18 00:00:00,74.3,69.5,30.08,SSE,154,0.0,0.0,85,0.00,,---,0.00,VWS V14.01,2013-05-18 04:00:00,
2013-05-18 00:01:00,74.3,69.5,30.08,SSE,147,4.0,5.0,85,0.00,,---,0.00,VWS V14.01,2013-05-18 04:01:00,
2013-05-18 00:02:00,74.3,69.5,30.08,SE,135,0.0,5.0,85,0.00,,---,0.00,VWS V14.01,2013-05-18 04:02:00,
2013-05-18 00:07:00,74.3,69.5,30.08,SSE,150,0.0,5.0,85,0.00,,---,0.00,VWS V14.01,2013-05-18 04:07:00,
2013-05-18 00:15:00,74.2,69.8,30.08,ESE,117,2.0,2.0,86,0.00,,---,0.00,VWS V14.01,2013-05-18 04:15:00,
2013-05-18 00:21:00,74.2,69.4,30.08,SE,130,1.0,4.0,85,0.00,,---,0.00,VWS V14.01,2013-05-18 04:21:00,
2013-05-18 00:25:00,74.2,69.8,30.08,SE,139,0.0,4.0,86,0.00,,---,0.00,VWS V14.01,2013-05-18 04:25:00,
2013-05-18 00:30:00,74.1,69.7,30.08,SE,132,0.0,0.0,86,0.00,,---,0.00,VWS V14.01,2013-05-18 04:30:00,
2013-05-18 00:35:00,74.1,69.7,30.08,SE,132,0.0,2.0,86,0.00,,---,0.00,VWS V14.01,2013-05-18 04:35:00,
2013-05-18 00:40:00,74.0,69.6,30.08,SSE,149,1.0,2.0,86,0.00,,---,0.00,VWS V14.01,2013-05-18 04:40:00,
2013-05-18 00:46:00,74.0,69.6,30.08,SSE,161,3.0,5.0,86,0.00,,---,0.00,VWS V14.01,2013-05-18 04:46:00,
2013-05-18 00:51:00,74.1,69.7,30.08,SSE,161,0.0,5.0,86,0.00,,---,0.00,VWS V14.01,2013-05-18 04:51:00,
2013-05-18 00:56:00,74.1,69.3,30.08,SSE,159,3.0,5.0,85,0.00,,---,0.00,VWS V14.01,2013-05-18 04:56:00,
2013-05-18 01:00:00,74.1,69.3,30.08,SE,140,0.0,5.0,85,0.00,,---,0.00,VWS V14.01,2013-05-18 05:00:00,
2013-05-18 01:01:00,74.1,69.3,30.08,SE,140,0.0,0.0,85,0.00,,---,0.00,VWS V14.01,2013-05-18 05:01:00,
2013-05-18 01:06:00,74.0,69.6,30.08,SSE,155,0.0,4.0,86,0.00,,---,0.00,VWS V14.01,2013-05-18 05:06:00,
2013-05-18 01:11:00,73.8,69.3,30.08,SSE,155,2.0,4.0,86,0.00,,---,0.00,VWS V14.01,2013-05-18 05:11:00,
2013-05-18 01:16:00,73.7,69.3,30.08,SSE,155,0.0,4.0,86,0.00,,---,0.00,VWS V14.01,2013-05-18 05:16:00,
2013-05-18 01:23:00,73.6,69.2,30.08,SSE,155,0.0,4.0,86,0.00,,---,0.00,VWS V14.01,2013-05-18 05:23:00,
2013-05-18 01:28:00,73.3,69.2,30.08,SSE,147,0.0,4.0,87,0.00,,---,0.00,VWS V14.01,2013-05-18 05:28:00,
2013-05-18 01:30:00,73.3,69.2,30.08,SSE,147,2.0,4.0,87,0.00,,---,0.00,VWS V14.01,2013-05-18 05:30:00,
2013-05-18 01:33:00,73.3,69.5,30.08,SE,146,0.0,4.0,88,0.00,,---,0.00,VWS V14.01,2013-05-18 05:33:00,
2013-05-18 01:38:00,73.2,69.4,30.07,SE,146,0.0,4.0,88,0.00,,---,0.00,VWS V14.01,2013-05-18 05:38:00,
2013-05-18 01:43:00,73.1,69.0,30.08,SE,146,1.0,4.0,87,0.00,,---,0.00,VWS V14.01,2013-05-18 05:43:00,
2013-05-18 01:48:00,73.0,69.2,30.07,SE,146,0.0,4.0,88,0.00,,---,0.00,VWS V14.01,2013-05-18 05:48:00,
2013-05-18 01:53:00,73.1,69.0,30.07,SE,146,3.0,4.0,87,0.00,,---,0.00,VWS V14.01,2013-05-18 05:53:00,
2013-05-18 01:58:00,73.2,69.1,30.07,SSE,163,0.0,5.0,87,0.00,,---,0.00,VWS V14.01,2013-05-18 05:58:00,
2013-05-18 02:00:00,73.3,69.2,30.07,SSE,163,3.0,5.0,87,0.00,,---,0.00,VWS V14.01,2013-05-18 06:00:00,
2013-05-18 02:03:00,73.5,69.4,30.07,SSE,163,0.0,3.0,87,0.00,,---,0.00,VWS V14.01,2013-05-18 06:03:00,
2013-05-18 02:08:00,73.5,69.4,30.07,SSE,154,4.0,5.0,87,0.00,,---,0.00,VWS V14.01,2013-05-18 06:08:00,
2013-05-18 02:13:00,73.7,69.6,30.06,SSE,151,1.0,6.0,87,0.00,,---,0.00,VWS V14.01,2013-05-18 06:13:00,
2013-05-18 02:18:00,73.7,69.3,30.06,SE,136,4.0,6.0,86,0.00,,---,0.00,VWS V14.01,2013-05-18 06:18:00,
2013-05-18 02:23:00,73.7,69.3,30.06,SSE,163,3.0,6.0,86,0.00,,---,0.00,VWS V14.01,2013-05-18 06:23:00,
2013-05-18 02:28:00,73.7,69.3,30.06,SSE,163,0.0,6.0,86,0.00,,---,0.00,VWS V14.01,2013-05-18 06:28:00,
2013-05-18 02:30:00,73.7,69.3,30.06,SSE,163,0.0,6.0,86,0.00,,---,0.00,VWS V14.01,2013-05-18 06:30:00,
2013-05-18 02:33:00,73.6,69.2,30.06,South,173,3.0,4.0,86,0.00,,---,0.00,VWS V14.01,2013-05-18 06:33:00,
2013-05-18 02:38:00,73.6,69.2,30.06,SSE,161,2.0,4.0,86,0.00,,---,0.00,VWS V14.01,2013-05-18 06:38:00,
2013-05-18 02:43:00,73.6,69.5,30.06,SE,144,0.0,4.0,87,0.00,,---,0.00,VWS V14.01,2013-05-18 06:43:00,
2013-05-18 02:48:00,73.5,69.4,30.06,SSE,155,1.0,4.0,87,0.00,,---,0.00,VWS V14.01,2013-05-18 06:48:00,
2013-05-18 02:53:00,73.5,69.4,30.06,SSE,157,0.0,4.0,87,0.00,,---,0.00,VWS V14.01,2013-05-18 06:53:00,
2013-05-18 02:58:00,73.4,69.3,30.06,SE,144,0.0,4.0,87,0.00,,---,0.00,VWS V14.01,2013-05-18 06:58:00,
2013-05-18 03:00:00,73.4,69.3,30.06,SE,146,2.0,4.0,87,0.00,,---,0.00,VWS V14.01,2013-05-18 07:00:00,
2013-05-18 03:03:00,73.4,69.3,30.06,SE,146,2.0,2.0,87,0.00,,---,0.00,VWS V14.01,2013-05-18 07:03:00,
2013-05-18 03:08:00,73.4,69.3,30.06,SSE,152,1.0,4.0,87,0.00,,---,0.00,VWS V14.01,2013-05-18 07:08:00,
2013-05-18 03:13:00,73.3,69.2,30.06,SSE,152,2.0,4.0,87,0.00,,---,0.00,VWS V14.01,2013-05-18 07:13:00,
2013-05-18 03:18:00,73.3,69.5,30.06,SSE,150,3.0,5.0,88,0.00,,---,0.00,VWS V14.01,2013-05-18 07:18:00,
2013-05-18 03:23:00,73.3,69.5,30.06,SSE,161,0.0,5.0,88,0.00,,---,0.00,VWS V14.01,2013-05-18 07:23:00,
2013-05-18 03:28:00,73.3,69.5,30.06,SE,144,1.0,5.0,88,0.00,,---,0.00,VWS V14.01,2013-05-18 07:28:00,
2013-05-18 03:30:00,73.3,69.5,30.06,SE,144,0.0,5.0,88,0.00,,---,0.00,VWS V14.01,2013-05-18 07:30:00,
2013-05-18 04:00:00,72.9,69.5,30.06,SE,135,0.0,4.0,89,0.00,,---,0.00,VWS V14.01,2013-05-18 08:00:00,
2013-05-18 04:30:00,70.6,68.2,30.05,SSE,158,0.0,2.0,92,0.00,,---,0.00,VWS V14.01,2013-05-18 08:30:00,
2013-05-18 05:00:00,68.6,66.5,30.05,SSE,158,0.0,1.0,93,0.00,,---,0.00,VWS V14.01,2013-05-18 09:00:00,
2013-05-18 05:30:00,67.6,65.8,30.05,SSE,158,0.0,0.0,94,0.00,,---,0.00,VWS V14.01,2013-05-18 09:30:00,
2013-05-18 06:00:00,67.2,65.7,30.06,SSE,158,0.0,0.0,95,0.00,,---,0.00,VWS V14.01,2013-05-18 10:00:00,
2013-05-18 06:30:00,66.3,64.8,30.07,SE,135,0.0,1.0,95,0.00,,---,0.00,VWS V14.01,2013-05-18 10:30:00,
2013-05-18 07:00:00,67.2,65.7,30.06,SSE,158,0.0,0.0,95,0.00,,---,0.00,VWS V14.01,2013-05-18 11:00:00,
2013-05-18 07:27:00,68.0,67.7,30.07,SE,132,0.0,0.0,99,0.00,,---,0.00,VWS V14.01,2013-05-18 11:27:00,
2013-05-18 07:30:00,68.3,68.0,30.07,SE,132,0.0,0.0,99,0.00,,---,0.00,VWS V14.01,2013-05-18 11:30:00,
2013-05-18 07:32:00,68.5,68.2,30.07,SE,132,0.0,0.0,99,0.00,,---,0.00,VWS V14.01,2013-05-18 11:32:00,
2013-05-18 07:37:00,69.0,68.4,30.08,SE,132,1.0,1.0,98,0.00,,---,0.00,VWS V14.01,2013-05-18 11:37:00,
2013-05-18 07:42:00,69.5,68.9,30.08,SE,132,1.0,1.0,98,0.00,,---,0.00,VWS V14.01,2013-05-18 11:42:00,
2013-05-18 07:47:00,70.1,69.5,30.08,SE,132,1.0,1.0,98,0.00,,---,0.00,VWS V14.01,2013-05-18 11:47:00,
2013-05-18 07:52:00,70.8,69.9,30.08,SE,132,0.0,2.0,97,0.00,,---,0.00,VWS V14.01,2013-05-18 11:52:00,
2013-05-18 07:57:00,71.4,70.2,30.08,SE,132,1.0,2.0,96,0.00,,---,0.00,VWS V14.01,2013-05-18 11:57:00,
2013-05-18 08:00:00,71.7,70.2,30.08,SE,132,2.0,4.0,95,0.00,,---,0.00,VWS V14.01,2013-05-18 12:00:00,
2013-05-18 08:02:00,72.0,70.2,30.08,SE,132,1.0,3.0,94,0.00,,---,0.00,VWS V14.01,2013-05-18 12:02:00,
2013-05-18 08:07:00,72.6,70.5,30.08,SE,132,2.0,3.0,93,0.00,,---,0.00,VWS V14.01,2013-05-18 12:07:00,
2013-05-18 08:12:00,73.1,70.6,30.08,SE,132,2.0,3.0,92,0.00,,---,0.00,VWS V14.01,2013-05-18 12:12:00,
2013-05-18 08:17:00,73.8,71.0,30.08,SE,132,1.0,3.0,91,0.00,,---,0.00,VWS V14.01,2013-05-18 12:17:00,
2013-05-18 08:22:00,74.4,71.3,30.08,SE,126,1.0,3.0,90,0.00,,---,0.00,VWS V14.01,2013-05-18 12:22:00,
2013-05-18 08:27:00,74.8,71.3,30.09,SE,126,0.0,4.0,89,0.00,,---,0.00,VWS V14.01,2013-05-18 12:27:00,
2013-05-18 08:30:00,75.1,71.6,30.09,SE,126,1.0,4.0,89,0.00,,---,0.00,VWS V14.01,2013-05-18 12:30:00,
2013-05-18 08:32:00,75.3,71.5,30.09,ESE,121,1.0,3.0,88,0.00,,---,0.00,VWS V14.01,2013-05-18 12:32:00,
2013-05-18 08:37:00,75.7,71.9,30.09,SE,125,1.0,4.0,88,0.00,,---,0.00,VWS V14.01,2013-05-18 12:37:00,
2013-05-18 08:46:00,75.9,71.8,30.09,SSE,148,1.0,4.0,87,0.00,,---,0.00,VWS V14.01,2013-05-18 12:46:00,
2013-05-18 08:51:00,77.0,72.2,30.10,ESE,123,1.0,5.0,85,0.00,,---,0.00,VWS V14.01,2013-05-18 12:51:00,
2013-05-18 08:56:00,77.2,71.6,30.10,SSE,153,1.0,5.0,83,0.00,,---,0.00,VWS V14.01,2013-05-18 12:56:00,
2013-05-18 09:00:00,77.0,71.8,30.10,SSE,158,1.0,5.0,84,0.00,,---,0.00,VWS V14.01,2013-05-18 13:00:00,
2013-05-18 09:01:00,77.0,71.8,30.10,SSE,158,1.0,3.0,84,0.00,,---,0.00,VWS V14.01,2013-05-18 13:01:00,
2013-05-18 09:06:00,77.2,72.0,30.11,SSE,158,0.0,3.0,84,0.00,,---,0.00,VWS V14.01,2013-05-18 13:06:00,
2013-05-18 09:11:00,77.6,71.7,30.11,SSE,148,1.0,4.0,82,0.00,,---,0.00,VWS V14.01,2013-05-18 13:11:00,
2013-05-18 09:16:00,78.0,72.1,30.11,ESE,117,0.0,4.0,82,0.00,,---,0.00,VWS V14.01,2013-05-18 13:16:00,
2013-05-18 09:21:00,78.4,72.4,30.11,ESE,117,1.0,4.0,82,0.00,,---,0.00,VWS V14.01,2013-05-18 13:21:00,
2013-05-18 09:26:00,78.7,72.0,30.11,SSE,152,1.0,4.0,80,0.00,,---,0.00,VWS V14.01,2013-05-18 13:26:00,
2013-05-18 09:30:00,78.5,72.6,30.11,South,185,1.0,4.0,82,0.00,,---,0.00,VWS V14.01,2013-05-18 13:30:00,
2013-05-18 09:31:00,78.5,72.2,30.11,South,185,2.0,3.0,81,0.00,,---,0.00,VWS V14.01,2013-05-18 13:31:00,
2013-05-18 09:36:00,78.4,72.1,30.11,South,171,2.0,4.0,81,0.00,,---,0.00,VWS V14.01,2013-05-18 13:36:00,
2013-05-18 09:41:00,78.3,72.4,30.11,South,171,1.0,4.0,82,0.00,,---,0.00,VWS V14.01,2013-05-18 13:41:00,
2013-05-18 09:46:00,78.7,72.0,30.11,South,171,0.0,4.0,80,0.00,,---,0.00,VWS V14.01,2013-05-18 13:46:00,
2013-05-18 09:52:00,79.0,72.7,30.11,South,171,1.0,4.0,81,0.00,,---,0.00,VWS V14.01,2013-05-18 13:52:00,
2013-05-18 09:57:00,79.4,72.3,30.11,South,171,2.0,4.0,79,0.00,,---,0.00,VWS V14.01,2013-05-18 13:57:00,
2013-05-18 10:00:00,79.4,72.7,30.11,South,171,1.0,4.0,80,0.00,,---,0.00,VWS V14.01,2013-05-18 14:00:00,
2013-05-18 10:02:00,79.5,72.8,30.11,South,171,0.0,2.0,80,0.00,,---,0.00,VWS V14.01,2013-05-18 14:02:00,
2013-05-18 10:07:00,79.9,73.2,30.10,South,169,1.0,3.0,80,0.00,,---,0.00,VWS V14.01,2013-05-18 14:07:00,
2013-05-18 10:13:00,80.3,72.4,30.10,SSE,165,0.0,3.0,77,0.00,,---,0.00,VWS V14.01,2013-05-18 14:13:00,
2013-05-18 10:18:00,80.6,72.7,30.10,South,171,2.0,4.0,77,0.00,,---,0.00,VWS V14.01,2013-05-18 14:18:00,
2013-05-18 10:23:00,80.9,73.8,30.10,South,171,1.0,4.0,79,0.00,,---,0.00,VWS V14.01,2013-05-18 14:23:00,
2013-05-18 10:28:00,81.4,72.7,30.10,South,174,3.0,4.0,75,0.00,,---,0.00,VWS V14.01,2013-05-18 14:28:00,
2013-05-18 10:30:00,81.4,72.7,30.10,South,174,1.0,4.0,75,0.00,,---,0.00,VWS V14.01,2013-05-18 14:30:00,
2013-05-18 10:33:00,81.3,73.0,30.10,South,174,1.0,3.0,76,0.00,,---,0.00,VWS V14.01,2013-05-18 14:33:00,
2013-05-18 10:38:00,81.5,73.2,30.10,SSE,167,2.0,3.0,76,0.00,,---,0.00,VWS V14.01,2013-05-18 14:38:00,
2013-05-18 10:43:00,81.8,73.1,30.10,SSE,166,3.0,3.0,75,0.00,,---,0.00,VWS V14.01,2013-05-18 14:43:00,
2013-05-18 10:48:00,81.8,72.7,30.10,SSE,165,3.0,4.0,74,0.00,,---,0.00,VWS V14.01,2013-05-18 14:48:00,
2013-05-18 10:53:00,81.9,72.8,30.10,South,173,2.0,4.0,74,0.00,,---,0.00,VWS V14.01,2013-05-18 14:53:00,
2013-05-18 10:58:00,82.1,73.0,30.09,South,171,2.0,4.0,74,0.00,,---,0.00,VWS V14.01,2013-05-18 14:58:00,
2013-05-18 11:00:00,82.2,72.7,30.09,SSE,168,3.0,4.0,73,0.00,,---,0.00,VWS V14.01,2013-05-18 15:00:00,
2013-05-18 11:03:00,82.4,72.9,30.09,SSE,165,2.0,3.0,73,0.00,,---,0.00,VWS V14.01,2013-05-18 15:03:00,
2013-05-18 11:08:00,82.8,72.9,30.09,SSE,165,0.0,4.0,72,0.00,,---,0.00,VWS V14.01,2013-05-18 15:08:00,
2013-05-18 11:13:00,83.1,72.7,30.09,SE,126,0.0,5.0,71,0.00,,---,0.00,VWS V14.01,2013-05-18 15:13:00,
2013-05-18 11:18:00,83.6,72.4,30.09,SE,140,1.0,5.0,69,0.00,,---,0.00,VWS V14.01,2013-05-18 15:18:00,
2013-05-18 11:23:00,83.9,72.2,30.09,SE,138,2.0,5.0,68,0.00,,---,0.00,VWS V14.01,2013-05-18 15:23:00,
2013-05-18 11:28:00,83.9,71.3,30.09,SSE,147,2.0,5.0,66,0.00,,---,0.00,VWS V14.01,2013-05-18 15:28:00,
2013-05-18 11:30:00,83.9,71.8,30.09,SSE,153,1.0,5.0,67,0.00,,---,0.00,VWS V14.01,2013-05-18 15:30:00,
2013-05-18 11:33:00,83.9,71.8,30.09,SSE,163,5.0,7.0,67,0.00,,---,0.00,VWS V14.01,2013-05-18 15:33:00,
2013-05-18 11:38:00,83.7,71.1,30.09,SSE,155,4.0,7.0,66,0.00,,---,0.00,VWS V14.01,2013-05-18 15:38:00,
2013-05-18 11:43:00,83.9,71.8,30.09,SSE,159,4.0,7.0,67,0.00,,---,0.00,VWS V14.01,2013-05-18 15:43:00,
2013-05-18 11:48:00,84.1,70.6,30.09,SE,144,3.0,7.0,64,0.00,,---,0.00,VWS V14.01,2013-05-18 15:48:00,
2013-05-18 11:53:00,84.5,71.0,30.08,SE,142,2.0,7.0,64,0.00,,---,0.00,VWS V14.01,2013-05-18 15:53:00,
2013-05-18 11:58:00,84.9,70.9,30.08,ESE,119,2.0,7.0,63,0.00,,---,0.00,VWS V14.01,2013-05-18 15:58:00,
2013-05-18 12:00:00,85.2,70.7,30.08,SE,128,2.0,7.0,62,0.00,,---,0.00,VWS V14.01,2013-05-18 16:00:00,
2013-05-18 12:03:00,85.5,69.6,30.08,SE,146,2.0,6.0,59,0.00,,---,0.00,VWS V14.01,2013-05-18 16:03:00,
2013-05-18 12:08:00,85.7,69.7,30.08,SW,217,1.0,6.0,59,0.00,,---,0.00,VWS V14.01,2013-05-18 16:08:00,
2013-05-18 12:13:00,86.0,70.0,30.08,South,190,3.0,6.0,59,0.00,,---,0.00,VWS V14.01,2013-05-18 16:13:00,
2013-05-18 12:18:00,86.0,69.0,30.08,South,170,4.0,6.0,57,0.00,,---,0.00,VWS V14.01,2013-05-18 16:18:00,
2013-05-18 12:23:00,85.9,67.9,30.07,South,189,3.0,6.0,55,0.00,,---,0.00,VWS V14.01,2013-05-18 16:23:00,
2013-05-18 12:28:00,86.1,69.1,30.07,SE,144,2.0,6.0,57,0.00,,---,0.00,VWS V14.01,2013-05-18 16:28:00,
2013-05-18 12:30:00,86.2,68.7,30.07,SSW,212,2.0,6.0,56,0.00,,---,0.00,VWS V14.01,2013-05-18 16:30:00,
2013-05-18 12:33:00,86.4,68.9,30.07,South,188,2.0,6.0,56,0.00,,---,0.00,VWS V14.01,2013-05-18 16:33:00,
2013-05-18 12:38:00,86.5,67.9,30.07,SSE,148,0.0,6.0,54,0.00,,---,0.00,VWS V14.01,2013-05-18 16:38:00,
2013-05-18 12:43:00,86.6,69.1,30.06,SE,141,4.0,6.0,56,0.00,,---,0.00,VWS V14.01,2013-05-18 16:43:00,
2013-05-18 12:48:00,87.0,67.3,30.07,ESE,117,1.0,6.0,52,0.00,,---,0.00,VWS V14.01,2013-05-18 16:48:00,
2013-05-18 12:53:00,87.1,68.4,30.07,South,179,2.0,6.0,54,0.00,,---,0.00,VWS V14.01,2013-05-18 16:53:00,
2013-05-18 12:58:00,87.1,65.6,30.06,SSE,166,3.0,6.0,49,0.00,,---,0.00,VWS V14.01,2013-05-18 16:58:00,
2013-05-18 13:00:00,87.1,65.1,30.07,South,175,2.0,6.0,48,0.00,,---,0.00,VWS V14.01,2013-05-18 17:00:00,
2013-05-18 13:03:00,87.1,67.4,30.06,SW,225,0.0,5.0,52,0.00,,---,0.00,VWS V14.01,2013-05-18 17:03:00,
2013-05-18 13:09:00,87.5,67.7,30.06,SE,143,2.0,5.0,52,0.00,,---,0.00,VWS V14.01,2013-05-18 17:09:00,
2013-05-18 13:14:00,88.3,65.5,30.06,South,186,0.0,5.0,47,0.00,,---,0.00,VWS V14.01,2013-05-18 17:14:00,
2013-05-18 13:19:00,88.2,67.2,30.06,South,186,0.0,5.0,50,0.00,,---,0.00,VWS V14.01,2013-05-18 17:19:00,
2013-05-18 13:24:00,88.2,66.7,30.06,South,185,0.0,5.0,49,0.00,,---,0.00,VWS V14.01,2013-05-18 17:24:00,
2013-05-18 13:29:00,88.1,68.3,30.06,SE,133,1.0,6.0,52,0.00,,---,0.00,VWS V14.01,2013-05-18 17:29:00,
2013-05-18 13:30:00,88.1,68.3,30.06,SE,133,2.0,6.0,52,0.00,,---,0.00,VWS V14.01,2013-05-18 17:30:00,
2013-05-18 13:34:00,88.4,68.0,30.06,South,173,2.0,4.0,51,0.00,,---,0.00,VWS V14.01,2013-05-18 17:34:00,
2013-05-18 13:39:00,88.1,66.0,30.05,South,182,3.0,4.0,48,0.00,,---,0.00,VWS V14.01,2013-05-18 17:39:00,
2013-05-18 13:44:00,88.1,65.3,30.06,South,175,2.0,5.0,47,0.00,,---,0.00,VWS V14.01,2013-05-18 17:44:00,
2013-05-18 13:49:00,88.3,65.5,30.05,SSE,163,1.0,5.0,47,0.00,,---,0.00,VWS V14.01,2013-05-18 17:49:00,
2013-05-18 13:54:00,88.4,60.3,30.06,WSW,250,3.0,5.0,39,0.00,,---,0.00,VWS V14.01,2013-05-18 17:54:00,
2013-05-18 13:59:00,88.8,63.4,30.05,SSE,148,1.0,5.0,43,0.00,,---,0.00,VWS V14.01,2013-05-18 17:59:00,
2013-05-18 14:00:00,88.8,63.4,30.05,SE,144,2.0,5.0,43,0.00,,---,0.00,VWS V14.01,2013-05-18 18:00:00,
2013-05-18 14:04:00,89.3,59.6,30.05,SSE,168,3.0,6.0,37,0.00,,---,0.00,VWS V14.01,2013-05-18 18:04:00,
2013-05-18 14:09:00,89.2,62.4,30.05,SSE,168,0.0,6.0,41,0.00,,---,0.00,VWS V14.01,2013-05-18 18:09:00,
2013-05-18 14:14:00,89.6,62.8,30.05,SSE,148,2.0,6.0,41,0.00,,---,0.00,VWS V14.01,2013-05-18 18:14:00,
2013-05-18 14:19:00,89.8,61.6,30.05,SSE,167,4.0,7.0,39,0.00,,---,0.00,VWS V14.01,2013-05-18 18:19:00,
2013-05-18 14:25:00,89.8,63.0,30.04,SE,144,4.0,7.0,41,0.00,,---,0.00,VWS V14.01,2013-05-18 18:25:00,
2013-05-18 14:30:00,90.5,61.5,30.04,ESE,123,5.0,7.0,38,0.00,,---,0.00,VWS V14.01,2013-05-18 18:30:00,
2013-05-18 14:35:00,90.9,62.5,30.04,SE,125,1.0,5.0,39,0.00,,---,0.00,VWS V14.01,2013-05-18 18:35:00,
2013-05-18 14:40:00,90.8,62.5,30.04,SSE,167,6.0,7.0,39,0.00,,---,0.00,VWS V14.01,2013-05-18 18:40:00,
2013-05-18 14:45:00,90.4,65.5,30.03,SSE,155,4.0,7.0,44,0.00,,---,0.00,VWS V14.01,2013-05-18 18:45:00,
2013-05-18 14:50:00,90.3,64.8,30.04,SSE,150,6.0,8.0,43,0.00,,---,0.00,VWS V14.01,2013-05-18 18:50:00,
2013-05-18 14:55:00,90.2,64.7,30.03,ESE,119,2.0,8.0,43,0.00,,---,0.00,VWS V14.01,2013-05-18 18:55:00,
2013-05-18 15:00:00,90.2,63.3,30.03,SE,130,4.0,8.0,41,0.00,,---,0.00,VWS V14.01,2013-05-18 19:00:00,
2013-05-18 15:05:00,90.4,64.9,30.03,ESE,117,2.0,5.0,43,0.00,,---,0.00,VWS V14.01,2013-05-18 19:05:00,
2013-05-18 15:10:00,91.0,64.7,30.02,SE,126,1.0,6.0,42,0.00,,---,0.00,VWS V14.01,2013-05-18 19:10:00,
2013-05-18 15:15:00,90.9,64.7,30.02,ESE,117,4.0,6.0,42,0.00,,---,0.00,VWS V14.01,2013-05-18 19:15:00,
2013-05-18 15:24:00,91.1,62.7,30.02,SE,146,3.0,3.0,39,0.00,,---,0.00,VWS V14.01,2013-05-18 19:24:00,
2013-05-18 15:29:00,90.6,61.5,30.02,SE,144,3.0,5.0,38,0.00,,---,0.00,VWS V14.01,2013-05-18 19:29:00,
2013-05-18 15:30:00,90.6,61.5,30.02,SE,144,3.0,5.0,38,0.00,,---,0.00,VWS V14.01,2013-05-18 19:30:00,
2013-05-18 15:34:00,90.7,63.8,30.02,ESE,106,0.0,3.0,41,0.00,,---,0.00,VWS V14.01,2013-05-18 19:34:00,
2013-05-18 15:39:00,90.9,62.5,30.01,SSE,159,3.0,5.0,39,0.00,,---,0.00,VWS V14.01,2013-05-18 19:39:00,
2013-05-18 15:44:00,90.6,65.1,30.01,SSE,152,3.0,6.0,43,0.00,,---,0.00,VWS V14.01,2013-05-18 19:44:00,
2013-05-18 15:49:00,90.4,61.4,30.01,SSE,151,2.0,6.0,38,0.00,,---,0.00,VWS V14.01,2013-05-18 19:49:00,
2013-05-18 15:54:00,90.7,60.1,30.01,SSE,154,1.0,7.0,36,0.00,,---,0.00,VWS V14.01,2013-05-18 19:54:00,
2013-05-18 15:59:00,90.7,59.3,30.01,ESE,109,1.0,7.0,35,0.00,,---,0.00,VWS V14.01,2013-05-18 19:59:00,
2013-05-18 16:00:00,90.8,59.4,30.01,ESE,110,3.0,7.0,35,0.00,,---,0.00,VWS V14.01,2013-05-18 20:00:00,
2013-05-18 16:04:00,91.1,61.2,30.01,SSE,156,4.0,4.0,37,0.00,,---,0.00,VWS V14.01,2013-05-18 20:04:00,
2013-05-18 16:09:00,91.1,59.7,30.01,South,169,3.0,6.0,35,0.00,,---,0.00,VWS V14.01,2013-05-18 20:09:00,
2013-05-18 16:14:00,91.1,58.0,30.01,SSE,157,4.0,6.0,33,0.00,,---,0.00,VWS V14.01,2013-05-18 20:14:00,
2013-05-18 16:19:00,91.0,64.1,30.00,SSE,148,2.0,6.0,41,0.00,,---,0.00,VWS V14.01,2013-05-18 20:19:00,
2013-05-18 16:24:00,91.3,61.4,30.00,SSE,154,3.0,7.0,37,0.00,,---,0.00,VWS V14.01,2013-05-18 20:24:00,
2013-05-18 16:29:00,91.6,61.7,30.00,SSE,152,2.0,7.0,37,0.00,,---,0.00,VWS V14.01,2013-05-18 20:29:00,
2013-05-18 16:30:00,91.7,60.2,30.00,East,93,5.0,7.0,35,0.00,,---,0.00,VWS V14.01,2013-05-18 20:30:00,
2013-05-18 16:34:00,92.4,63.1,30.00,SSE,163,6.0,6.0,38,0.00,,---,0.00,VWS V14.01,2013-05-18 20:34:00,
2013-05-18 16:39:00,92.0,62.8,30.00,SE,138,3.0,6.0,38,0.00,,---,0.00,VWS V14.01,2013-05-18 20:39:00,
2013-05-18 16:44:00,91.3,63.6,30.00,SSE,155,2.0,7.0,40,0.00,,---,0.00,VWS V14.01,2013-05-18 20:44:00,
2013-05-18 16:49:00,90.9,63.3,29.99,ESE,119,0.0,7.0,40,0.00,,---,0.00,VWS V14.01,2013-05-18 20:49:00,
2013-05-18 16:54:00,90.7,63.1,29.99,SE,146,3.0,7.0,40,0.00,,---,0.00,VWS V14.01,2013-05-18 20:54:00,
2013-05-18 16:59:00,90.6,63.7,29.99,SSE,150,4.0,7.0,41,0.00,,---,0.00,VWS V14.01,2013-05-18 20:59:00,
2013-05-18 17:00:00,90.6,63.7,29.99,SSE,155,3.0,7.0,41,0.00,,---,0.00,VWS V14.01,2013-05-18 21:00:00,
2013-05-18 17:04:00,90.8,61.7,29.99,SE,142,2.0,3.0,38,0.00,,---,0.00,VWS V14.01,2013-05-18 21:04:00,
2013-05-18 17:09:00,91.3,62.9,29.99,SE,142,3.0,5.0,39,0.00,,---,0.00,VWS V14.01,2013-05-18 21:09:00,
2013-05-18 17:14:00,91.4,61.5,29.98,SE,137,1.0,5.0,37,0.00,,---,0.00,VWS V14.01,2013-05-18 21:14:00,
2013-05-18 17:20:00,91.5,63.8,29.98,SE,142,3.0,5.0,40,0.00,,---,0.00,VWS V14.01,2013-05-18 21:20:00,
2013-05-18 17:25:00,91.5,63.8,29.98,SSE,157,4.0,6.0,40,0.00,,---,0.00,VWS V14.01,2013-05-18 21:25:00,
2013-05-18 17:30:00,91.7,69.2,29.98,ESE,116,7.0,8.0,48,0.00,,---,0.00,VWS V14.01,2013-05-18 21:30:00,
2013-05-18 17:35:00,91.5,70.2,29.98,ESE,104,4.0,9.0,50,0.00,,---,0.00,VWS V14.01,2013-05-18 21:35:00,
2013-05-18 17:40:00,90.9,70.3,29.98,ESE,105,5.0,9.0,51,0.00,,---,0.00,VWS V14.01,2013-05-18 21:40:00,
2013-05-18 17:45:00,90.6,70.0,29.98,ESE,117,8.0,10.0,51,0.00,,---,0.00,VWS V14.01,2013-05-18 21:45:00,
2013-05-18 17:50:00,90.2,70.2,29.98,ENE,61,9.0,10.0,52,0.00,,---,0.00,VWS V14.01,2013-05-18 21:50:00,
2013-05-18 17:55:00,89.8,70.4,29.98,ESE,111,7.0,10.0,53,0.00,,---,0.00,VWS V14.01,2013-05-18 21:55:00,
2013-05-18 18:00:00,89.7,70.3,29.98,ESE,107,3.0,3.0,53,0.00,,---,0.00,VWS V14.01,2013-05-18 22:00:00,
2013-05-18 18:05:00,89.5,70.1,29.98,East,93,6.0,9.0,53,0.00,,---,0.00,VWS V14.01,2013-05-18 22:05:00,
2013-05-18 18:10:00,89.2,70.9,29.98,East,88,3.0,11.0,55,0.00,,---,0.00,VWS V14.01,2013-05-18 22:10:00,
2013-05-18 18:15:00,89.0,70.8,29.98,SE,130,6.0,12.0,55,0.00,,---,0.00,VWS V14.01,2013-05-18 22:15:00,
2013-05-18 18:20:00,88.4,71.2,29.98,SE,129,5.0,12.0,57,0.00,,---,0.00,VWS V14.01,2013-05-18 22:20:00,
2013-05-18 18:25:00,88.2,71.1,29.98,ESE,117,3.0,12.0,57,0.00,,---,0.00,VWS V14.01,2013-05-18 22:25:00,
2013-05-18 18:30:00,87.9,70.8,29.98,East,98,3.0,3.0,57,0.00,,---,0.00,VWS V14.01,2013-05-18 22:30:00,
2013-05-18 18:35:00,87.5,70.4,29.98,East,96,2.0,13.0,57,0.00,,---,0.00,VWS V14.01,2013-05-18 22:35:00,
2013-05-18 18:43:00,87.0,70.4,29.99,ESE,111,2.0,2.0,58,0.00,,---,0.00,VWS V14.01,2013-05-18 22:43:00,
2013-05-18 18:48:00,86.8,70.3,29.99,ESE,108,5.0,7.0,58,0.00,,---,0.00,VWS V14.01,2013-05-18 22:48:00,
2013-05-18 18:53:00,86.4,70.4,29.99,East,90,6.0,11.0,59,0.00,,---,0.00,VWS V14.01,2013-05-18 22:53:00,
2013-05-18 18:58:00,86.0,70.5,29.99,ENE,68,5.0,11.0,60,0.00,,---,0.00,VWS V14.01,2013-05-18 22:58:00,
2013-05-18 19:00:00,85.9,70.4,29.99,East,97,5.0,11.0,60,0.00,,---,0.00,VWS V14.01,2013-05-18 23:00:00,
2013-05-18 19:03:00,85.7,70.2,29.99,East,101,7.0,8.0,60,0.00,,---,0.00,VWS V14.01,2013-05-18 23:03:00,
2013-05-18 19:08:00,85.4,70.4,29.99,ESE,103,3.0,9.0,61,0.00,,---,0.00,VWS V14.01,2013-05-18 23:08:00,
2013-05-18 19:13:00,85.1,70.6,29.99,East,88,2.0,11.0,62,0.00,,---,0.00,VWS V14.01,2013-05-18 23:13:00,
2013-05-18 19:18:00,84.8,70.8,29.99,ESE,106,7.0,11.0,63,0.00,,---,0.00,VWS V14.01,2013-05-18 23:18:00,
2013-05-18 19:23:00,84.4,70.9,29.99,ESE,110,8.0,11.0,64,0.00,,---,0.00,VWS V14.01,2013-05-18 23:23:00,
2013-05-18 19:28:00,84.0,71.0,29.99,East,95,2.0,11.0,65,0.00,,---,0.00,VWS V14.01,2013-05-18 23:28:00,
2013-05-18 19:30:00,83.9,70.9,29.99,East,96,2.0,11.0,65,0.00,,---,0.00,VWS V14.01,2013-05-18 23:30:00,
2013-05-18 19:33:00,83.6,71.1,29.99,ESE,111,5.0,8.0,66,0.00,,---,0.00,VWS V14.01,2013-05-18 23:33:00,
2013-05-18 19:38:00,83.2,71.1,30.00,ESE,117,3.0,11.0,67,0.00,,---,0.00,VWS V14.01,2013-05-18 23:38:00,
2013-05-18 19:43:00,82.8,71.2,30.00,ESE,121,5.0,11.0,68,0.00,,---,0.00,VWS V14.01,2013-05-18 23:43:00,
2013-05-18 19:51:00,82.2,70.6,30.00,ESE,117,3.0,3.0,68,0.00,,---,0.00,VWS V14.01,2013-05-18 23:51:00,
2013-05-18 19:56:00,81.9,70.7,30.00,East,95,6.0,10.0,69,0.00,,---,0.00,VWS V14.01,2013-05-18 23:56:00,
2013-05-18 20:00:00,81.6,70.4,30.00,ESE,111,1.0,10.0,69,0.00,,---,0.00,VWS V14.01,2013-05-19 00:00:00,
2013-05-18 20:01:00,81.5,70.4,30.00,ESE,107,2.0,8.0,69,0.00,,---,0.00,VWS V14.01,2013-05-19 00:01:00,
2013-05-18 20:06:00,81.3,70.6,30.00,East,89,7.0,9.0,70,0.00,,---,0.00,VWS V14.01,2013-05-19 00:06:00,
2013-05-18 20:11:00,81.0,70.3,30.00,ESE,108,3.0,10.0,70,0.00,,---,0.00,VWS V14.01,2013-05-19 00:11:00,
2013-05-18 20:17:00,80.8,70.5,30.01,ESE,115,7.0,10.0,71,0.00,,---,0.00,VWS V14.01,2013-05-19 00:17:00,
2013-05-18 20:22:00,80.6,70.3,30.00,ESE,107,3.0,10.0,71,0.00,,---,0.00,VWS V14.01,2013-05-19 00:22:00,
2013-05-18 20:27:00,80.4,70.1,30.01,ESE,111,8.0,10.0,71,0.00,,---,0.00,VWS V14.01,2013-05-19 00:27:00,
2013-05-18 20:30:00,80.2,69.9,30.01,SE,132,6.0,10.0,71,0.00,,---,0.00,VWS V14.01,2013-05-19 00:30:00,
2013-05-18 20:32:00,80.2,69.9,30.01,ESE,105,5.0,13.0,71,0.00,,---,0.00,VWS V14.01,2013-05-19 00:32:00,
2013-05-18 20:37:00,80.0,70.2,30.01,SE,124,2.0,13.0,72,0.00,,---,0.00,VWS V14.01,2013-05-19 00:37:00,
2013-05-18 20:42:00,79.8,70.4,30.00,SSE,166,5.0,13.0,73,0.00,,---,0.00,VWS V14.01,2013-05-19 00:42:00,
2013-05-18 20:47:00,79.7,70.3,30.01,East,86,5.0,13.0,73,0.00,,---,0.00,VWS V14.01,2013-05-19 00:47:00,
2013-05-18 20:52:00,79.6,70.2,30.01,ESE,113,2.0,13.0,73,0.00,,---,0.00,VWS V14.01,2013-05-19 00:52:00,
2013-05-18 21:00:00,79.6,70.6,30.01,East,98,2.0,13.0,74,0.00,,---,0.00,VWS V14.01,2013-05-19 01:00:00,
2013-05-18 21:05:00,79.4,70.4,30.02,ESE,107,3.0,7.0,74,0.00,,---,0.00,VWS V14.01,2013-05-19 01:05:00,
2013-05-18 21:10:00,79.2,70.6,30.02,ESE,109,2.0,9.0,75,0.00,,---,0.00,VWS V14.01,2013-05-19 01:10:00,
2013-05-18 21:15:00,79.2,71.0,30.01,East,93,5.0,9.0,76,0.00,,---,0.00,VWS V14.01,2013-05-19 01:15:00,
2013-05-18 21:20:00,79.1,70.9,30.02,ESE,102,1.0,10.0,76,0.00,,---,0.00,VWS V14.01,2013-05-19 01:20:00,
2013-05-18 21:25:00,79.0,71.6,30.02,ESE,111,0.0,10.0,78,0.00,,---,0.00,VWS V14.01,2013-05-19 01:25:00,
2013-05-18 21:30:00,78.6,71.6,30.03,SE,136,1.0,10.0,79,0.00,,---,0.00,VWS V14.01,2013-05-19 01:30:00,
2013-05-18 21:35:00,78.3,72.0,30.03,SE,126,1.0,6.0,81,0.00,,---,0.00,VWS V14.01,2013-05-19 01:35:00,
2013-05-18 21:40:00,78.1,71.8,30.04,ESE,121,2.0,6.0,81,0.00,,---,0.00,VWS V14.01,2013-05-19 01:40:00,
2013-05-18 21:45:00,78.0,71.3,30.03,SE,131,1.0,7.0,80,0.00,,---,0.00,VWS V14.01,2013-05-19 01:45:00,
2013-05-18 21:50:00,78.1,71.8,30.03,SE,140,5.0,7.0,81,0.00,,---,0.00,VWS V14.01,2013-05-19 01:50:00,
2013-05-18 21:55:00,78.1,71.8,30.03,SE,130,4.0,7.0,81,0.00,,---,0.00,VWS V14.01,2013-05-19 01:55:00,
2013-05-18 22:00:00,78.2,71.9,30.03,SE,132,0.0,1.0,81,0.00,,---,0.00,VWS V14.01,2013-05-19 02:00:00,
2013-05-18 22:05:00,78.2,71.9,30.04,SSE,159,4.0,8.0,81,0.00,,---,0.00,VWS V14.01,2013-05-19 02:05:00,
2013-05-18 22:10:00,78.1,72.2,30.04,SE,146,2.0,8.0,82,0.00,,---,0.00,VWS V14.01,2013-05-19 02:10:00,
2013-05-18 22:15:00,78.0,72.1,30.05,SE,125,5.0,8.0,82,0.00,,---,0.00,VWS V14.01,2013-05-19 02:15:00,
2013-05-18 22:20:00,77.9,72.0,30.05,SSE,164,2.0,8.0,82,0.00,,---,0.00,VWS V14.01,2013-05-19 02:20:00,
2013-05-18 22:25:00,78.0,72.1,30.06,SSE,166,0.0,8.0,82,0.00,,---,0.00,VWS V14.01,2013-05-19 02:25:00,
2013-05-18 22:30:00,78.0,72.1,30.06,SSE,166,0.0,1.0,82,0.00,,---,0.00,VWS V14.01,2013-05-19 02:30:00,
2013-05-18 22:35:00,77.9,72.0,30.06,SSE,166,1.0,4.0,82,0.00,,---,0.00,VWS V14.01,2013-05-19 02:35:00,
2013-05-18 22:40:00,78.0,72.1,30.06,South,188,4.0,4.0,82,0.00,,---,0.00,VWS V14.01,2013-05-19 02:40:00,
2013-05-18 22:45:00,78.0,72.1,30.06,South,183,2.0,4.0,82,0.00,,---,0.00,VWS V14.01,2013-05-19 02:45:00,
2013-05-18 22:50:00,77.9,72.0,30.06,South,169,0.0,5.0,82,0.00,,---,0.00,VWS V14.01,2013-05-19 02:50:00,
2013-05-18 22:55:00,77.9,72.0,30.06,South,169,0.0,5.0,82,0.00,,---,0.00,VWS V14.01,2013-05-19 02:55:00,
2013-05-18 23:00:00,77.8,71.9,30.06,South,169,0.0,0.0,82,0.00,,---,0.00,VWS V14.01,2013-05-19 03:00:00,
2013-05-18 23:05:00,77.7,72.1,30.06,South,169,2.0,2.0,83,0.00,,---,0.00,VWS V14.01,2013-05-19 03:05:00,
2013-05-18 23:16:00,77.4,71.8,30.06,SSE,159,0.0,0.0,83,0.00,,---,0.00,VWS V14.01,2013-05-19 03:16:00,
2013-05-18 23:21:00,77.3,72.1,30.06,SSE,159,0.0,1.0,84,0.00,,---,0.00,VWS V14.01,2013-05-19 03:21:00,
2013-05-18 23:26:00,77.3,72.1,30.06,SSE,159,0.0,2.0,84,0.00,,---,0.00,VWS V14.01,2013-05-19 03:26:00,
2013-05-18 23:30:00,77.4,72.2,30.06,SSE,159,0.0,2.0,84,0.00,,---,0.00,VWS V14.01,2013-05-19 03:30:00,
2013-05-18 23:31:00,77.4,72.2,30.06,SSE,159,0.0,0.0,84,0.00,,---,0.00,VWS V14.01,2013-05-19 03:31:00,
2013-05-18 23:36:00,77.4,72.2,30.06,SSE,159,0.0,1.0,84,0.00,,---,0.00,VWS V14.01,2013-05-19 03:36:00,
2013-05-18 23:41:00,77.3,72.4,30.06,SSE,156,2.0,5.0,85,0.00,,---,0.00,VWS V14.01,2013-05-19 03:41:00,
2013-05-18 23:46:00,77.5,72.6,30.05,SSE,157,2.0,7.0,85,0.00,,---,0.00,VWS V14.01,2013-05-19 03:46:00,
2013-05-18 23:51:00,77.6,72.7,30.05,SE,126,1.0,9.0,85,0.00,,---,0.00,VWS V14.01,2013-05-19 03:51:00,
2013-05-18 23:56:00,77.5,72.6,30.05,ESE,112,4.0,9.0,85,0.00,,---,0.00,VWS V14.01,2013-05-19 03:56:00,